Home   Weather   Italy   Monza   Past weeks
Flag for Italy

Past Weather in Monza, Italy — Yesterday and Last 2 Weeks

Currently: 57 °F. Cool. (Weather station: Milan / Linate, Italy). See more current weather

Past Weather in Monza — Graph

°F

Monza Temperature Yesterday

Maximum temperature yesterday: 73 °F (at 2:20 pm)
Minimum temperature yesterday: 57 °F (at 11:20 pm)
Average temperature yesterday: 65 °F

High & Low Weather Summary for the Past Weeks

 TemperatureHumidityPressure
High86 °F (Sep 13, 2:50 pm)100% (Sep 16, 8:50 pm)30.27 "Hg (Sep 16, 8:50 pm)
Low54 °F (Sep 20, 3:20 am)30% (Sep 9, 3:50 pm)29.74 "Hg (Sep 19, 1:50 pm)
Average70 °F69%30.01 "Hg
* Reported Sep 9 1:20 am — Sep 24 1:20 am, Monza. Weather by CustomWeather, © 2021

Note: Actual official high and low records may vary slightly from our data, if they occured in-between our weather recording intervals... More about our weather records

Monza Weather History for the Previous 24 Hours

Scroll right to see more
 ConditionsComfort  
Time TempWeatherWind HumidityBarometerVisibility
1:20 am
Fri, Sep 24
59 °FCool.2 mph88%30.09 "HgN/A
12:50 am57 °FCool.1 mph100%30.12 "HgN/A
12:20 am57 °FCool.No wind94%30.12 "HgN/A
11:50 pm
Thu, Sep 23
57 °FCool.1 mph94%30.12 "HgN/A
11:20 pm57 °FCool.1 mph94%30.12 "HgN/A
10:50 pm59 °FClear.1 mph88%30.12 "Hg10 mi
10:20 pm61 °FClear.1 mph88%30.12 "Hg10 mi
9:50 pm61 °FClear.No wind83%30.12 "Hg10 mi
9:20 pm61 °FClear.2 mph83%30.12 "Hg10 mi
8:50 pm63 °FClear.2 mph83%30.12 "Hg10 mi
8:20 pm63 °FClear.1 mph77%30.12 "Hg10 mi
7:50 pm64 °FClear.1 mph73%30.12 "Hg10 mi
7:20 pm68 °FClear.2 mph64%30.12 "Hg10 mi
6:50 pm70 °FSunny.3 mph60%30.12 "Hg10 mi
6:20 pm73 °FSunny.3 mph50%30.12 "Hg10 mi
5:20 pm73 °FPassing clouds.2 mph50%30.12 "HgN/A
4:50 pm73 °FPassing clouds.2 mph50%30.12 "HgN/A
4:20 pm72 °FPassing clouds.2 mph53%30.15 "HgN/A
3:50 pm72 °FPassing clouds.6 mph53%30.15 "HgN/A
3:20 pm72 °FPassing clouds.2 mph53%30.15 "HgN/A
2:50 pm73 °FPassing clouds.3 mph50%30.18 "HgN/A
2:20 pm73 °FPassing clouds.2 mph50%30.18 "HgN/A
1:50 pm72 °FPassing clouds.3 mph53%30.21 "HgN/A
1:20 pm72 °FSunny.3 mph50%30.21 "Hg10 mi
12:50 pm70 °FPassing clouds.3 mph57%30.21 "HgN/A
12:20 pm70 °FScattered clouds.3 mph46%30.24 "HgN/A
11:50 am68 °FScattered clouds.3 mph60%30.24 "HgN/A
11:20 am68 °FScattered clouds.5 mph64%30.24 "HgN/A
10:50 am66 °FPassing clouds.6 mph68%30.24 "HgN/A
10:20 am66 °FPassing clouds.5 mph68%30.24 "HgN/A
9:50 am64 °FPassing clouds.3 mph73%30.24 "HgN/A
9:20 am63 °FPassing clouds.3 mph77%30.24 "HgN/A
8:50 am63 °FPartly sunny.5 mph77%30.24 "HgN/A
8:20 am63 °FPartly sunny.3 mph77%30.24 "HgN/A
7:50 am61 °FPartly sunny.1 mph83%30.24 "HgN/A
7:20 am63 °FPartly sunny.2 mph77%30.21 "HgN/A
6:50 am63 °FPassing clouds.5 mph77%30.21 "HgN/A
6:20 am61 °FPassing clouds.1 mph88%30.21 "HgN/A
5:50 am61 °FPassing clouds.3 mph83%30.21 "HgN/A
5:20 am59 °FPassing clouds.5 mph88%30.21 "HgN/A
4:50 am59 °FPassing clouds.3 mph88%30.21 "HgN/A
4:20 am61 °FPassing clouds.5 mph83%30.21 "HgN/A
3:50 am61 °FPassing clouds.6 mph83%30.21 "HgN/A
3:20 am63 °FPassing clouds.5 mph77%30.21 "HgN/A
2:50 am61 °FPassing clouds.5 mph83%30.21 "HgN/A
2:20 am63 °FPassing clouds.3 mph77%30.21 "HgN/A
Weather by CustomWeather, © 2021

See weather overview